createdAt,value
2018-11-06T00:01:12.033Z,84.36
2018-11-06T00:06:15.167Z,84.90
2018-11-06T00:11:18.209Z,84.97
2018-11-06T00:16:21.263Z,84.63
2018-11-06T00:21:24.272Z,84.30
2018-11-06T00:26:27.355Z,85.16
2018-11-06T00:31:30.411Z,84.82
2018-11-06T00:36:33.433Z,84.70
2018-11-06T00:41:36.554Z,84.00
2018-11-06T00:46:39.569Z,83.44
2018-11-06T00:51:42.697Z,83.52
2018-11-06T00:56:45.705Z,83.91
2018-11-06T01:01:48.779Z,84.50
2018-11-06T01:06:51.827Z,84.07
2018-11-06T01:11:54.869Z,84.26
2018-11-06T01:16:57.901Z,83.84
2018-11-06T01:22:00.949Z,84.07
2018-11-06T01:27:04.310Z,84.91
2018-11-06T01:32:07.364Z,85.10
2018-11-06T01:37:10.369Z,84.42
2018-11-06T01:42:13.470Z,84.22
2018-11-06T01:47:16.521Z,84.08
2018-11-06T01:52:19.540Z,84.06
2018-11-06T01:57:22.659Z,83.94
2018-11-06T02:02:25.822Z,83.64
2018-11-06T02:07:28.849Z,83.50
2018-11-06T02:12:32.529Z,83.46
2018-11-06T02:17:35.651Z,83.18
2018-11-06T02:22:39.394Z,83.37
2018-11-06T02:27:42.438Z,84.31
2018-11-06T02:32:46.457Z,84.01
2018-11-06T02:37:49.483Z,84.25
2018-11-06T02:42:52.471Z,83.26
2018-11-06T02:47:55.480Z,82.98
2018-11-06T02:52:58.511Z,83.27
2018-11-06T02:58:01.497Z,83.01
2018-11-06T03:03:04.783Z,82.95
2018-11-06T03:08:07.805Z,83.59
2018-11-06T03:13:10.818Z,83.32
2018-11-06T03:18:13.830Z,83.63
2018-11-06T03:23:16.834Z,82.71
2018-11-06T03:28:19.871Z,82.92
2018-11-06T03:33:22.955Z,82.49
2018-11-06T03:38:26.004Z,82.40
2018-11-06T03:43:29.017Z,82.10
2018-11-06T03:48:32.073Z,82.24
2018-11-06T03:53:35.124Z,82.59
2018-11-06T03:58:38.146Z,82.45
2018-11-06T04:03:41.211Z,81.41
2018-11-06T04:08:44.205Z,81.77
2018-11-06T04:13:47.205Z,82.84
2018-11-06T04:18:50.430Z,83.78
2018-11-06T04:23:53.500Z,83.59
2018-11-06T04:28:56.523Z,83.03
2018-11-06T04:33:59.667Z,82.76
2018-11-06T04:39:03.980Z,82.51
2018-11-06T04:44:07.420Z,82.26
2018-11-06T04:49:10.435Z,82.64
2018-11-06T04:54:13.436Z,82.46
2018-11-06T04:59:16.457Z,81.24
2018-11-06T05:04:19.514Z,81.63
2018-11-06T05:09:22.607Z,81.91
2018-11-06T05:14:25.688Z,82.04
2018-11-06T05:19:28.688Z,81.39
2018-11-06T05:24:33.250Z,81.84
2018-11-06T05:29:36.366Z,81.89
2018-11-06T05:34:39.459Z,81.44
2018-11-06T05:40:00.039Z,82.53
2018-11-06T05:45:03.105Z,82.51
2018-11-06T05:50:06.299Z,82.18
2018-11-06T05:55:09.346Z,81.89
2018-11-06T06:00:12.420Z,83.15
2018-11-06T06:05:15.451Z,82.75
2018-11-06T06:10:18.470Z,82.10
2018-11-06T06:15:28.172Z,81.83
2018-11-06T06:20:31.287Z,82.42
2018-11-06T06:25:34.371Z,81.72
2018-11-06T06:30:37.433Z,82.77
2018-11-06T06:35:40.464Z,82.76
2018-11-06T06:40:43.581Z,82.75
2018-11-06T06:45:46.663Z,82.34
2018-11-06T06:50:49.849Z,81.79
2018-11-06T06:55:52.970Z,81.58
2018-11-06T07:00:59.598Z,81.47
2018-11-06T07:06:02.783Z,81.56
2018-11-06T07:11:05.975Z,81.23
2018-11-06T07:16:09.128Z,81.82
2018-11-06T07:21:12.242Z,82.73
2018-11-06T07:26:15.416Z,83.29
2018-11-06T07:31:18.621Z,82.49
2018-11-06T07:36:21.821Z,82.42
2018-11-06T07:41:25.027Z,82.61
2018-11-06T07:46:28.163Z,82.47
2018-11-06T07:51:31.358Z,82.31
2018-11-06T07:56:34.527Z,83.40
2018-11-06T08:01:40.728Z,84.50
2018-11-06T08:06:43.906Z,83.97
2018-11-06T08:11:46.996Z,83.89
2018-11-06T08:16:50.129Z,83.65
2018-11-06T08:21:53.231Z,84.10
2018-11-06T08:26:56.424Z,83.41
2018-11-06T08:32:00.425Z,83.23
2018-11-06T08:37:02.702Z,84.35
2018-11-06T08:42:06.269Z,84.77
2018-11-06T08:47:09.315Z,86.05
2018-11-06T08:52:12.356Z,86.22
2018-11-06T08:57:15.422Z,86.45
2018-11-06T09:02:18.514Z,86.80
2018-11-06T09:07:21.539Z,86.49
2018-11-06T09:12:24.583Z,86.39
2018-11-06T09:17:27.669Z,85.96
2018-11-06T09:22:30.799Z,86.16
2018-11-06T09:27:33.855Z,86.81
2018-11-06T09:32:36.923Z,86.83
2018-11-06T09:37:40.754Z,86.12
2018-11-06T09:42:43.799Z,86.04
2018-11-06T09:47:46.852Z,86.01
2018-11-06T09:52:50.015Z,84.99
2018-11-06T09:57:53.041Z,84.98
2018-11-06T10:02:56.078Z,84.39
2018-11-06T10:07:59.110Z,83.86
2018-11-06T10:13:02.145Z,84.09
2018-11-06T10:18:05.996Z,83.20
2018-11-06T10:23:09.044Z,81.53
2018-11-06T10:28:12.099Z,81.59
2018-11-06T10:33:15.157Z,81.22
2018-11-06T10:38:18.241Z,80.46
2018-11-06T10:43:21.294Z,79.09
2018-11-06T10:48:24.343Z,77.84
2018-11-06T10:53:27.490Z,77.92
2018-11-06T10:58:30.551Z,77.45
2018-11-06T11:03:34.738Z,76.20
2018-11-06T11:08:37.779Z,76.08
2018-11-06T11:13:40.828Z,75.63
2018-11-06T11:18:43.908Z,74.74
2018-11-06T11:23:46.959Z,72.32
2018-11-06T11:28:50.031Z,71.44
2018-11-06T11:33:53.091Z,71.59
2018-11-06T11:38:56.094Z,72.13
2018-11-06T11:43:59.102Z,72.64
2018-11-06T11:49:02.140Z,72.82
2018-11-06T11:54:05.505Z,72.29
2018-11-06T11:59:08.454Z,72.15
2018-11-06T12:04:11.532Z,72.34
2018-11-06T12:09:14.572Z,71.71
2018-11-06T12:14:17.663Z,71.53
2018-11-06T12:19:20.683Z,71.91
2018-11-06T12:24:23.777Z,72.14
2018-11-06T12:29:26.791Z,71.92
2018-11-06T12:34:29.796Z,71.58
2018-11-06T12:39:32.831Z,72.13
2018-11-06T12:44:35.884Z,71.98
2018-11-06T12:49:38.941Z,72.31
2018-11-06T12:54:42.035Z,71.81
2018-11-06T12:59:45.102Z,71.26
2018-11-06T13:04:48.176Z,69.58
2018-11-06T13:09:51.290Z,69.54
2018-11-06T13:14:55.257Z,69.87
2018-11-06T13:19:57.391Z,69.81
2018-11-06T13:25:00.438Z,69.60
2018-11-06T13:30:03.712Z,69.69
2018-11-06T13:35:07.135Z,70.13
2018-11-06T13:40:12.626Z,69.48
2018-11-06T13:45:18.348Z,68.64
2018-11-06T13:50:21.234Z,68.00
2018-11-06T13:55:24.323Z,68.07
2018-11-06T14:00:27.450Z,69.21
2018-11-06T14:05:30.514Z,70.27
2018-11-06T14:10:33.580Z,70.28
2018-11-06T14:15:36.614Z,70.79
2018-11-06T14:20:39.665Z,70.62
2018-11-06T14:25:42.752Z,71.58
2018-11-06T14:30:45.808Z,71.77
2018-11-06T14:35:48.957Z,72.64
2018-11-06T14:40:51.986Z,72.90
2018-11-06T14:45:55.053Z,73.40
2018-11-06T14:50:58.124Z,73.46
2018-11-06T14:56:01.222Z,72.98
2018-11-06T15:01:04.375Z,73.50
2018-11-06T15:06:07.459Z,74.18
2018-11-06T15:11:10.488Z,75.08
2018-11-06T15:16:13.539Z,76.11
2018-11-06T15:21:16.598Z,77.05
2018-11-06T15:26:19.707Z,77.60
2018-11-06T15:31:22.939Z,77.59
2018-11-06T15:36:25.982Z,77.33
2018-11-06T15:41:29.101Z,77.31
2018-11-06T15:46:32.084Z,77.50
2018-11-06T15:51:35.139Z,77.70
2018-11-06T15:56:38.182Z,78.38
2018-11-06T16:01:41.674Z,78.21
2018-11-06T16:06:44.726Z,78.59
2018-11-06T16:11:47.748Z,78.56
2018-11-06T16:16:50.822Z,78.81
2018-11-06T16:21:53.854Z,78.20
2018-11-06T16:26:56.903Z,79.14
2018-11-06T16:32:01.300Z,78.67
2018-11-06T16:37:04.721Z,79.60
2018-11-06T16:42:07.839Z,79.43
2018-11-06T16:47:10.985Z,79.91
2018-11-06T16:52:14.067Z,78.90
2018-11-06T16:57:17.263Z,79.45
2018-11-06T17:02:20.341Z,80.41
2018-11-06T17:07:23.536Z,81.08
2018-11-06T17:12:26.646Z,80.47
2018-11-06T17:17:29.733Z,81.12
2018-11-06T17:22:33.011Z,80.98
2018-11-06T17:27:36.337Z,80.43
2018-11-06T17:32:39.937Z,80.17
2018-11-06T17:37:43.065Z,80.19
2018-11-06T17:42:46.186Z,79.00
2018-11-06T17:47:49.278Z,79.20
2018-11-06T17:52:52.559Z,79.34
2018-11-06T17:57:55.602Z,78.98
2018-11-06T18:02:58.660Z,78.02
2018-11-06T18:08:01.766Z,77.89
2018-11-06T18:13:04.927Z,79.31
2018-11-06T18:18:07.993Z,79.08
2018-11-06T18:23:11.039Z,79.27
2018-11-06T18:28:14.066Z,79.03
2018-11-06T18:33:17.134Z,79.36
2018-11-06T18:38:20.261Z,80.13
2018-11-06T18:43:23.385Z,80.04
2018-11-06T18:48:26.454Z,80.90
2018-11-06T18:53:29.549Z,81.51
2018-11-06T18:58:32.610Z,81.88
2018-11-06T19:03:36.126Z,82.16
2018-11-06T19:08:41.479Z,81.91
2018-11-06T19:13:46.297Z,81.60
2018-11-06T19:18:49.522Z,81.29
2018-11-06T19:23:54.223Z,81.67
2018-11-06T19:28:57.564Z,82.26
2018-11-06T19:34:00.578Z,83.20
2018-11-06T19:39:07.479Z,83.02
2018-11-06T19:44:10.523Z,83.59
2018-11-06T19:49:13.571Z,83.33
2018-11-06T19:54:16.692Z,83.13
2018-11-06T19:59:19.678Z,83.48
2018-11-06T20:04:22.782Z,83.45
2018-11-06T20:09:25.883Z,83.83
2018-11-06T20:14:28.903Z,84.23
2018-11-06T20:19:31.941Z,84.26
2018-11-06T20:24:34.995Z,83.98
2018-11-06T20:29:38.170Z,83.67
2018-11-06T20:34:41.433Z,83.68
2018-11-06T20:39:46.344Z,83.74
2018-11-06T20:44:49.567Z,83.56
2018-11-06T20:49:52.913Z,83.58
2018-11-06T20:54:56.174Z,83.21
2018-11-06T20:59:59.263Z,83.47
2018-11-06T21:05:02.316Z,83.33
2018-11-06T21:10:06.120Z,82.74
2018-11-06T21:15:10.542Z,82.83
2018-11-06T21:20:14.311Z,82.03
2018-11-06T21:25:17.418Z,82.08
2018-11-06T21:30:21.052Z,82.20
2018-11-06T21:35:24.072Z,83.11
2018-11-06T21:40:27.112Z,83.91
2018-11-06T21:45:30.155Z,83.79
2018-11-06T21:50:33.206Z,84.15
2018-11-06T21:55:36.259Z,83.50
2018-11-06T22:00:39.368Z,83.17
2018-11-06T22:05:42.379Z,83.46
2018-11-06T22:10:45.388Z,83.86
2018-11-06T22:15:48.443Z,83.72
2018-11-06T22:20:51.470Z,83.20
2018-11-06T22:25:54.490Z,84.44
2018-11-06T22:30:57.535Z,85.36
2018-11-06T22:36:00.567Z,85.00
2018-11-06T22:41:03.620Z,83.99
2018-11-06T22:46:06.665Z,83.72
2018-11-06T22:51:09.699Z,84.22
2018-11-06T22:56:12.731Z,84.00
2018-11-06T23:01:21.304Z,83.23
2018-11-06T23:06:24.513Z,83.73
2018-11-06T23:11:27.414Z,83.61
2018-11-06T23:16:30.447Z,83.64
2018-11-06T23:21:33.485Z,83.36
2018-11-06T23:26:36.516Z,84.37
2018-11-06T23:31:39.592Z,85.08
2018-11-06T23:36:42.603Z,84.15
2018-11-06T23:41:45.635Z,83.99
2018-11-06T23:46:48.646Z,83.19
2018-11-06T23:51:51.720Z,83.10
2018-11-06T23:56:54.761Z,82.62
